Pagrindinis puslapis
METAR-TAF:

METAR-TAF

Oro uostai :

Pantelerija, Italija

platuma: 36-49N, ilguma: 011-58E, Aukštis: 191 m

Dabartinis oras

Ataskaita buvo paskelbta 39 minutes, ne 10:50 UTC
Vėjas 14 kt iš Rytų/Pietryčių
Temperatūra 28°C
Drėgmė 70%
Slėgis 1020 hPa
Matomumas 10 km arba daugiau
Išsisklaidę debesys ne aukštis 1300 ft

METAR: LICG 211050Z 12014KT 9999 SCT013 28/22 Q1020

Laikas: 13:29 (11:29 UTC)

Prognozė

Ataskaita buvo paskelbta 3 valandos ir 29 minutes, ne 08:00 UTC
Prognozė galioja nuo 21 metu 09 UTC su 21 metu 18 UTC
Vėjas 18 kt iš Pietryčių
Matomumas 10 km arba daugiau
Išsisklaidę debesys ne aukštis 2000 ft

TAF: LICG 210800Z 2109/2118 14018KT 9999 SCT020

Orai ataskaitas ir orų prognozės (METAR, TAF).

turimą stotys yra geltonos ir raudonos taškus žemėlapyje.

Perkelti pele per norėdami pamatyti stoties vardą.

Tada spustelėkite, norėdami matyti oro stebėjimo ir prognozės.

Norėdami pakeisti žemėlapį: spustelėkite ant žalios mygtukų su juodo kryžiaus žemyn,; žalią mygtuką su brūkšneliu, jei norite nutolinti; arba žalių rodyklių gretimoms žemėlapius.


METAR-TAF: